createdAt,value
2023-04-19T00:02:14.127Z,13.07
2023-04-19T00:04:47.608Z,13.08
2023-04-19T00:07:20.535Z,13.11
2023-04-19T00:09:53.256Z,13.14
2023-04-19T00:12:26.428Z,13.15
2023-04-19T00:14:59.150Z,13.17
2023-04-19T00:17:33.368Z,13.18
2023-04-19T00:20:06.580Z,13.20
2023-04-19T00:22:39.260Z,13.21
2023-04-19T00:25:11.918Z,13.25
2023-04-19T00:27:44.679Z,13.27
2023-04-19T00:30:17.427Z,13.27
2023-04-19T00:32:51.623Z,13.29
2023-04-19T00:35:24.375Z,13.30
2023-04-19T00:37:57.054Z,13.31
2023-04-19T00:40:29.691Z,13.34
2023-04-19T00:43:02.872Z,13.36
2023-04-19T00:45:36.465Z,13.39
2023-04-19T00:48:10.611Z,13.40
2023-04-19T00:50:44.578Z,13.42
2023-04-19T00:53:17.684Z,13.44
2023-04-19T00:55:51.644Z,13.47
2023-04-19T00:58:24.634Z,13.49
2023-04-19T01:00:57.533Z,13.51
2023-04-19T01:03:31.783Z,13.53
2023-04-19T01:06:04.698Z,13.55
2023-04-19T01:08:37.498Z,13.57
2023-04-19T01:11:10.315Z,13.60
2023-04-19T01:13:43.092Z,13.63
2023-04-19T01:16:15.913Z,13.65
2023-04-19T01:18:50.295Z,13.66
2023-04-19T01:21:23.586Z,13.68
2023-04-19T01:23:57.768Z,13.71
2023-04-19T01:26:30.466Z,13.71
2023-04-19T01:29:03.494Z,13.71
2023-04-19T01:31:36.374Z,13.73
2023-04-19T01:34:09.103Z,13.74
2023-04-19T01:36:42.065Z,13.74
2023-04-19T01:39:16.257Z,13.75
2023-04-19T01:41:48.928Z,13.75
2023-04-19T01:44:21.609Z,13.76
2023-04-19T01:46:55.123Z,13.77
2023-04-19T01:49:27.854Z,13.78
2023-04-19T01:52:00.850Z,13.78
2023-04-19T01:54:34.910Z,13.79
2023-04-19T01:57:07.524Z,13.78
2023-04-19T01:59:40.206Z,13.79
2023-04-19T02:02:12.934Z,13.80
2023-04-19T02:04:45.995Z,13.81
2023-04-19T02:07:18.684Z,13.82
2023-04-19T02:09:52.899Z,13.82
2023-04-19T02:12:25.568Z,13.83
2023-04-19T02:14:58.265Z,13.84
2023-04-19T02:17:32.691Z,13.86
2023-04-19T02:20:05.947Z,13.85
2023-04-19T02:22:38.688Z,13.87
2023-04-19T02:25:12.794Z,13.88
2023-04-19T02:27:45.537Z,13.88
2023-04-19T02:30:18.246Z,13.89
2023-04-19T02:32:51.081Z,13.89
2023-04-19T02:35:23.876Z,13.91
2023-04-19T02:37:56.593Z,13.91
2023-04-19T02:40:30.651Z,13.92
2023-04-19T02:43:05.167Z,13.93
2023-04-19T02:45:38.276Z,13.92
2023-04-19T02:48:10.927Z,13.94
2023-04-19T02:50:43.633Z,13.94
2023-04-19T02:53:16.248Z,13.94
2023-04-19T02:55:50.296Z,13.93
2023-04-19T02:58:23.001Z,13.94
2023-04-19T03:00:55.738Z,13.93
2023-04-19T03:03:28.818Z,13.95
2023-04-19T03:06:01.662Z,13.95
2023-04-19T03:08:34.668Z,13.95
2023-04-19T03:11:08.762Z,13.94
2023-04-19T03:13:41.575Z,13.92
2023-04-19T03:16:14.317Z,13.93
2023-04-19T03:18:49.228Z,13.93
2023-04-19T03:21:22.531Z,13.93
2023-04-19T03:23:55.196Z,13.92
2023-04-19T03:26:29.445Z,13.92
2023-04-19T03:29:02.692Z,13.93
2023-04-19T03:31:35.500Z,13.92
2023-04-19T03:34:08.180Z,13.91
2023-04-19T03:36:41.222Z,13.92
2023-04-19T03:39:13.988Z,13.90
2023-04-19T03:41:48.398Z,13.91
2023-04-19T03:44:21.127Z,13.92
2023-04-19T03:46:53.924Z,13.90
2023-04-19T03:49:26.586Z,13.89
2023-04-19T03:51:59.253Z,13.90
2023-04-19T03:54:31.949Z,13.92
2023-04-19T03:57:06.219Z,13.91
2023-04-19T03:59:38.905Z,13.93
2023-04-19T04:02:11.643Z,13.93
2023-04-19T04:04:44.567Z,13.94
2023-04-19T04:07:17.513Z,13.94
2023-04-19T04:09:50.347Z,13.94
2023-04-19T04:12:24.694Z,13.95
2023-04-19T04:14:57.324Z,13.96
2023-04-19T04:17:30.065Z,13.96
2023-04-19T04:20:03.166Z,13.97
2023-04-19T04:22:35.933Z,13.97
2023-04-19T04:25:09.036Z,13.95
2023-04-19T04:27:44.238Z,13.95
2023-04-19T04:30:16.892Z,13.96
2023-04-19T04:32:51.403Z,13.95
2023-04-19T04:35:24.181Z,13.96
2023-04-19T04:37:56.861Z,13.96
2023-04-19T04:40:29.546Z,13.93
2023-04-19T04:43:05.255Z,13.94
2023-04-19T04:45:38.399Z,13.94
2023-04-19T04:48:11.139Z,13.94
2023-04-19T04:50:44.229Z,13.93
2023-04-19T04:53:16.916Z,13.93
2023-04-19T04:55:49.576Z,13.93
2023-04-19T04:58:23.860Z,13.93
2023-04-19T05:00:56.614Z,13.95
2023-04-19T05:03:29.751Z,13.94
2023-04-19T05:06:02.789Z,13.94
2023-04-19T05:08:35.578Z,13.97
2023-04-19T05:11:08.549Z,14.00
2023-04-19T05:13:42.686Z,13.98
2023-04-19T05:16:15.405Z,14.02
2023-04-19T05:18:48.072Z,14.04
2023-04-19T05:21:20.872Z,14.06
2023-04-19T05:23:54.718Z,14.05
2023-04-19T05:26:27.385Z,14.07
2023-04-19T05:29:01.591Z,14.06
2023-04-19T05:31:34.263Z,14.06
2023-04-19T05:34:07.104Z,14.08
2023-04-19T05:36:40.250Z,14.07
2023-04-19T05:39:13.912Z,14.06
2023-04-19T05:41:46.589Z,14.06
2023-04-19T05:44:20.888Z,14.07
2023-04-19T05:46:53.505Z,14.08
2023-04-19T05:49:26.215Z,14.08
2023-04-19T05:51:58.904Z,14.11
2023-04-19T05:54:35.882Z,14.13
2023-04-19T05:57:08.557Z,14.14
2023-04-19T05:59:42.758Z,14.18
2023-04-19T06:02:15.889Z,14.20
2023-04-19T06:04:48.944Z,14.22
2023-04-19T06:07:30.747Z,14.25
2023-04-19T06:10:04.618Z,14.28
2023-04-19T06:12:37.425Z,14.31
2023-04-19T06:15:12.539Z,14.33
2023-04-19T06:17:45.316Z,14.35
2023-04-19T06:20:18.453Z,14.38
2023-04-19T06:22:51.919Z,14.41
2023-04-19T06:25:25.553Z,14.45
2023-04-19T06:27:58.537Z,14.49
2023-04-19T06:30:32.677Z,14.53
2023-04-19T06:33:05.293Z,14.57
2023-04-19T06:35:38.408Z,14.60
2023-04-19T06:38:11.106Z,14.66
2023-04-19T06:40:43.863Z,14.67
2023-04-19T06:43:16.805Z,14.71
2023-04-19T06:45:51.275Z,14.77
2023-04-19T06:48:23.883Z,14.79
2023-04-19T06:50:56.558Z,14.83
2023-04-19T06:53:29.500Z,14.85
2023-04-19T06:56:04.600Z,14.90
2023-04-19T06:58:37.341Z,14.92
2023-04-19T07:01:12.077Z,14.97
2023-04-19T07:03:47.098Z,14.98
2023-04-19T07:06:19.988Z,15.00
2023-04-19T07:08:52.615Z,15.00
2023-04-19T07:11:25.406Z,15.03
2023-04-19T07:13:58.229Z,15.04
2023-04-19T07:16:32.369Z,15.04
2023-04-19T07:19:05.002Z,15.06
2023-04-19T07:21:38.868Z,15.08
2023-04-19T07:24:11.547Z,15.09
2023-04-19T07:26:44.521Z,15.10
2023-04-19T07:29:17.212Z,15.10
2023-04-19T07:31:51.489Z,15.10
2023-04-19T07:34:24.240Z,15.10
2023-04-19T07:36:56.865Z,15.10
2023-04-19T07:39:30.921Z,15.11
2023-04-19T07:42:03.630Z,15.12
2023-04-19T07:44:36.679Z,15.12
2023-04-19T07:47:11.016Z,15.12
2023-04-19T07:49:44.487Z,15.12
2023-04-19T07:52:18.493Z,15.13
2023-04-19T07:54:51.240Z,15.13
2023-04-19T07:57:23.913Z,15.10
2023-04-19T07:59:59.154Z,15.09
2023-04-19T08:02:33.696Z,15.10
2023-04-19T08:05:06.995Z,15.10
2023-04-19T08:07:39.947Z,15.11
2023-04-19T08:10:13.343Z,15.10
2023-04-19T08:12:57.360Z,15.13
2023-04-19T08:16:20.482Z,15.15
2023-04-19T08:18:31.921Z,15.18
2023-04-19T08:21:05.005Z,15.18
2023-04-19T08:23:47.304Z,15.19
2023-04-19T08:26:21.140Z,15.21
2023-04-19T08:28:54.169Z,15.21
2023-04-19T08:31:26.929Z,15.22
2023-04-19T08:34:02.840Z,15.23
2023-04-19T08:36:40.946Z,15.24
2023-04-19T08:39:29.114Z,15.25
2023-04-19T08:42:11.124Z,15.28
2023-04-19T08:45:23.416Z,15.30
2023-04-19T08:48:00.573Z,15.34
2023-04-19T08:50:45.655Z,15.42
2023-04-19T08:53:29.750Z,15.46
2023-04-19T08:58:54.828Z,15.59
2023-04-19T09:01:36.039Z,15.66
2023-04-19T09:04:34.782Z,15.75
2023-04-19T09:07:03.395Z,15.82
2023-04-19T09:09:45.628Z,15.90
2023-04-19T09:12:28.586Z,15.97
2023-04-19T09:15:02.491Z,16.03
2023-04-19T09:17:35.667Z,16.13
2023-04-19T09:20:08.814Z,16.17
2023-04-19T09:22:43.047Z,16.24
2023-04-19T09:25:41.952Z,16.30
2023-04-19T09:28:18.348Z,16.35
2023-04-19T09:33:34.363Z,16.44
2023-04-19T09:36:07.691Z,16.46
2023-04-19T09:38:51.426Z,16.46
2023-04-19T09:41:24.040Z,16.48
2023-04-19T09:44:47.374Z,16.52
2023-04-19T09:47:03.045Z,16.56
2023-04-19T09:49:48.046Z,16.63
2023-04-19T09:52:21.928Z,16.67
2023-04-19T09:54:56.931Z,16.76
2023-04-19T09:57:29.749Z,16.83
2023-04-19T10:00:06.631Z,16.92
2023-04-19T10:02:39.682Z,17.00
2023-04-19T10:05:20.681Z,17.05
2023-04-19T10:07:59.399Z,17.09
2023-04-19T10:10:41.961Z,17.13
2023-04-19T10:13:21.386Z,17.19
2023-04-19T10:16:01.857Z,17.28
2023-04-19T10:18:37.776Z,17.33
2023-04-19T10:21:11.889Z,17.42
2023-04-19T10:23:44.532Z,17.48
2023-04-19T10:26:18.684Z,17.55
2023-04-19T10:28:51.537Z,17.63
2023-04-19T10:31:26.291Z,17.68
2023-04-19T10:34:00.002Z,17.73
2023-04-19T10:36:33.816Z,17.73
2023-04-19T10:39:26.525Z,17.73
2023-04-19T10:42:00.945Z,17.70
2023-04-19T10:44:33.627Z,17.69
2023-04-19T10:47:07.921Z,17.69
2023-04-19T10:49:45.868Z,17.66
2023-04-19T10:52:29.594Z,17.69
2023-04-19T10:55:05.145Z,17.72
2023-04-19T10:57:52.693Z,17.75
2023-04-19T11:00:31.477Z,17.78
2023-04-19T11:03:31.695Z,17.83
2023-04-19T11:06:27.109Z,17.85
2023-04-19T11:09:00.165Z,17.90
2023-04-19T11:11:34.532Z,17.93
2023-04-19T11:14:09.396Z,17.99
2023-04-19T11:16:46.039Z,18.02
2023-04-19T11:19:19.497Z,18.06
2023-04-19T11:21:52.734Z,18.14
2023-04-19T11:24:25.420Z,18.20
2023-04-19T11:26:58.786Z,18.29
2023-04-19T11:29:31.774Z,18.40
2023-04-19T11:32:07.614Z,18.52
2023-04-19T11:34:40.574Z,18.66
2023-04-19T11:37:13.298Z,18.77
2023-04-19T11:39:46.611Z,18.89
2023-04-19T11:42:20.543Z,18.95
2023-04-19T11:44:53.539Z,19.01
2023-04-19T11:47:27.733Z,19.07
2023-04-19T11:50:23.984Z,19.09
2023-04-19T11:52:56.744Z,19.10
2023-04-19T11:55:34.020Z,19.06
2023-04-19T11:58:09.785Z,19.06
2023-04-19T12:00:47.770Z,19.03
2023-04-19T12:03:26.360Z,19.01
2023-04-19T12:06:00.232Z,18.97
2023-04-19T12:08:33.856Z,18.95
2023-04-19T12:11:07.267Z,18.93
2023-04-19T12:13:40.846Z,18.90
2023-04-19T12:16:13.682Z,18.86
2023-04-19T12:18:49.969Z,18.84
2023-04-19T12:21:27.310Z,18.82
2023-04-19T12:24:00.812Z,18.79
2023-04-19T12:26:33.680Z,18.79
2023-04-19T12:29:07.181Z,18.79
2023-04-19T12:31:39.939Z,18.78
2023-04-19T12:34:13.943Z,18.76
2023-04-19T12:36:46.607Z,18.73
2023-04-19T12:39:19.276Z,18.72
2023-04-19T12:41:51.927Z,18.68
2023-04-19T12:44:25.085Z,18.66
2023-04-19T12:46:58.142Z,18.67
2023-04-19T12:49:32.231Z,18.65
2023-04-19T12:52:05.219Z,18.66
2023-04-19T12:54:38.075Z,18.68
2023-04-19T12:57:10.842Z,18.68
2023-04-19T12:59:43.509Z,18.71
2023-04-19T13:02:16.322Z,18.70
2023-04-19T13:04:51.247Z,18.70
2023-04-19T13:07:24.053Z,18.69
2023-04-19T13:09:57.129Z,18.66
2023-04-19T13:12:30.328Z,18.61
2023-04-19T13:15:04.406Z,18.60
2023-04-19T13:17:38.144Z,18.60
2023-04-19T13:20:12.661Z,18.61
2023-04-19T13:22:45.366Z,18.61
2023-04-19T13:25:18.065Z,18.62
2023-04-19T13:27:51.748Z,18.65
2023-04-19T13:30:24.496Z,18.63
2023-04-19T13:32:57.300Z,18.66
2023-04-19T13:35:31.873Z,18.66
2023-04-19T13:38:04.613Z,18.71
2023-04-19T13:40:37.327Z,18.74
2023-04-19T13:43:10.000Z,18.78
2023-04-19T13:45:42.675Z,18.83
2023-04-19T13:48:15.451Z,18.86
2023-04-19T13:50:51.154Z,18.89
2023-04-19T13:53:24.050Z,18.92
2023-04-19T13:55:56.982Z,18.96
2023-04-19T13:58:29.749Z,19.00
2023-04-19T14:01:02.559Z,19.05
2023-04-19T14:03:35.361Z,19.10
2023-04-19T14:06:09.618Z,19.16
2023-04-19T14:08:42.312Z,19.22
2023-04-19T14:11:15.041Z,19.29
2023-04-19T14:13:48.356Z,19.38
2023-04-19T14:16:24.369Z,19.49
2023-04-19T14:18:57.283Z,19.57
2023-04-19T14:21:31.554Z,19.70
2023-04-19T14:24:04.420Z,19.79
2023-04-19T14:26:37.265Z,19.90
2023-04-19T14:29:09.978Z,20.00
2023-04-19T14:31:42.738Z,20.09
2023-04-19T14:34:15.566Z,20.18
2023-04-19T14:36:51.511Z,20.26
2023-04-19T14:39:24.760Z,20.32
2023-04-19T14:41:57.905Z,20.35
2023-04-19T14:44:30.604Z,20.38
2023-04-19T14:47:03.281Z,20.39
2023-04-19T14:49:36.175Z,20.39
2023-04-19T14:52:10.193Z,20.40
2023-04-19T14:54:43.393Z,20.41
2023-04-19T14:57:16.291Z,20.43
2023-04-19T14:59:48.941Z,20.43
2023-04-19T15:02:21.967Z,20.43
2023-04-19T15:04:55.291Z,20.43
2023-04-19T15:07:29.566Z,20.40
2023-04-19T15:10:02.326Z,20.38
2023-04-19T15:12:35.076Z,20.34
2023-04-19T15:15:08.675Z,20.29
2023-04-19T15:17:41.398Z,20.24
2023-04-19T15:20:14.180Z,20.19
2023-04-19T15:22:48.245Z,20.14
2023-04-19T15:25:21.161Z,20.09
2023-04-19T15:27:54.052Z,20.04
2023-04-19T15:30:26.803Z,19.99
2023-04-19T15:32:59.498Z,19.92
2023-04-19T15:35:32.393Z,19.88
2023-04-19T15:38:06.416Z,19.81
2023-04-19T15:40:40.319Z,19.77
2023-04-19T15:43:12.987Z,19.74
2023-04-19T15:45:45.608Z,19.67
2023-04-19T15:48:18.354Z,19.61
2023-04-19T15:50:51.058Z,19.57
2023-04-19T15:53:25.164Z,19.54
2023-04-19T15:55:58.125Z,19.50
2023-04-19T15:58:30.838Z,19.49
2023-04-19T16:01:03.718Z,19.44
2023-04-19T16:03:36.548Z,19.41
2023-04-19T16:06:09.313Z,19.35
2023-04-19T16:08:43.434Z,19.31
2023-04-19T16:11:16.542Z,19.25
2023-04-19T16:13:49.515Z,19.20
2023-04-19T16:16:22.280Z,19.16
2023-04-19T16:18:54.928Z,19.10
2023-04-19T16:21:28.914Z,19.02
2023-04-19T16:24:02.977Z,18.93
2023-04-19T16:26:35.663Z,18.83
2023-04-19T16:29:08.348Z,18.73
2023-04-19T16:31:41.120Z,18.60
2023-04-19T16:34:13.781Z,18.50
2023-04-19T16:36:46.603Z,18.39
2023-04-19T16:39:20.676Z,18.28
2023-04-19T16:41:53.411Z,18.17
2023-04-19T16:44:26.021Z,18.05
2023-04-19T16:46:58.696Z,17.96
2023-04-19T16:49:31.400Z,17.89
2023-04-19T16:52:04.178Z,17.81
2023-04-19T16:54:38.559Z,17.77
2023-04-19T16:57:11.656Z,17.69
2023-04-19T16:59:44.343Z,17.61
2023-04-19T17:02:17.290Z,17.58
2023-04-19T17:04:50.318Z,17.51
2023-04-19T17:07:23.131Z,17.45
2023-04-19T17:09:58.933Z,17.43
2023-04-19T17:12:31.640Z,17.37
2023-04-19T17:15:05.131Z,17.34
2023-04-19T17:17:37.800Z,17.28
2023-04-19T17:20:10.908Z,17.23
2023-04-19T17:22:43.545Z,17.14
2023-04-19T17:25:17.617Z,17.05
2023-04-19T17:27:50.851Z,16.92
2023-04-19T17:30:23.956Z,16.81
2023-04-19T17:32:56.637Z,16.69
2023-04-19T17:35:29.455Z,16.53
2023-04-19T17:38:02.474Z,16.41
2023-04-19T17:40:36.754Z,16.26
2023-04-19T17:43:11.262Z,16.13
2023-04-19T17:45:43.955Z,16.01
2023-04-19T17:48:16.572Z,15.88
2023-04-19T17:50:49.238Z,15.76
2023-04-19T17:53:22.130Z,15.63
2023-04-19T17:55:56.560Z,15.53
2023-04-19T17:58:29.409Z,15.40
2023-04-19T18:01:03.412Z,15.28
2023-04-19T18:03:36.548Z,15.16
2023-04-19T18:06:09.831Z,15.03
2023-04-19T18:08:42.505Z,14.91
2023-04-19T18:11:18.330Z,14.77
2023-04-19T18:13:51.090Z,14.64
2023-04-19T18:16:23.880Z,14.49
2023-04-19T18:18:56.537Z,14.34
2023-04-19T18:21:29.418Z,14.19
2023-04-19T18:24:04.985Z,14.02
2023-04-19T18:26:40.215Z,13.86
2023-04-19T18:29:16.231Z,13.67
2023-04-19T18:31:49.330Z,13.49
2023-04-19T18:34:22.126Z,13.33
2023-04-19T18:37:00.173Z,13.17
2023-04-19T18:39:33.388Z,13.00
2023-04-19T18:42:08.086Z,12.84
2023-04-19T18:44:51.958Z,12.69
2023-04-19T18:47:26.906Z,12.52
2023-04-19T18:50:05.264Z,12.38
2023-04-19T18:52:39.122Z,12.22
2023-04-19T18:55:14.186Z,12.08
2023-04-19T18:57:48.452Z,11.92
2023-04-19T19:00:21.908Z,11.79
2023-04-19T19:02:55.427Z,11.67
2023-04-19T19:05:28.991Z,11.55
2023-04-19T19:08:02.565Z,11.46
2023-04-19T19:13:14.041Z,11.30
2023-04-19T19:15:49.757Z,11.18
2023-04-19T19:18:22.683Z,11.08
2023-04-19T19:20:59.761Z,10.96
2023-04-19T19:23:36.232Z,10.85
2023-04-19T19:26:12.537Z,10.73
2023-04-19T19:28:47.585Z,10.62
2023-04-19T19:31:20.537Z,10.50
2023-04-19T19:34:13.788Z,10.40
2023-04-19T19:36:49.414Z,10.29
2023-04-19T19:39:22.480Z,10.18
2023-04-19T19:44:32.682Z,10.00
2023-04-19T19:47:10.276Z,9.95
2023-04-19T19:52:21.086Z,9.85
2023-04-19T19:54:54.531Z,9.82
2023-04-19T20:02:54.276Z,9.76
2023-04-19T20:05:29.649Z,9.72
2023-04-19T20:08:07.391Z,9.72
2023-04-19T20:10:42.298Z,9.69
2023-04-19T20:13:15.072Z,9.67
2023-04-19T20:15:49.379Z,9.63
2023-04-19T20:18:22.563Z,9.61
2023-04-19T20:20:55.964Z,9.56
2023-04-19T20:23:28.885Z,9.53
2023-04-19T20:26:02.052Z,9.51
2023-04-19T20:28:35.209Z,9.49
2023-04-19T20:31:10.690Z,9.49
2023-04-19T20:33:43.730Z,9.50
2023-04-19T20:36:17.252Z,9.50
2023-04-19T20:38:50.487Z,9.49
2023-04-19T20:41:23.527Z,9.47
2023-04-19T20:43:57.489Z,9.46
2023-04-19T20:46:32.491Z,9.43
2023-04-19T20:49:05.228Z,9.41
2023-04-19T20:51:38.690Z,9.38
2023-04-19T20:54:13.656Z,9.34
2023-04-19T20:56:46.502Z,9.32
2023-04-19T20:59:19.628Z,9.29
2023-04-19T21:01:54.346Z,9.28
2023-04-19T21:04:28.031Z,9.24
2023-04-19T21:07:01.306Z,9.24
2023-04-19T21:09:34.206Z,9.21
2023-04-19T21:12:07.037Z,9.18
2023-04-19T21:14:41.658Z,9.15
2023-04-19T21:17:15.898Z,9.12
2023-04-19T21:19:48.721Z,9.06
2023-04-19T21:22:21.508Z,9.04
2023-04-19T21:24:54.408Z,8.98
2023-04-19T21:27:27.844Z,8.93
2023-04-19T21:30:00.781Z,8.88
2023-04-19T21:32:35.156Z,8.84
2023-04-19T21:35:08.753Z,8.81
2023-04-19T21:37:41.627Z,8.78
2023-04-19T21:40:14.619Z,8.76
2023-04-19T21:42:47.575Z,8.75
2023-04-19T21:45:20.392Z,8.74
2023-04-19T21:47:54.647Z,8.72
2023-04-19T21:50:27.737Z,8.72
2023-04-19T21:53:00.894Z,8.70
2023-04-19T21:55:34.691Z,8.69
2023-04-19T21:58:07.918Z,8.68
2023-04-19T22:00:41.120Z,8.69
2023-04-19T22:03:16.028Z,8.66
2023-04-19T22:05:49.373Z,8.65
2023-04-19T22:08:22.466Z,8.62
2023-04-19T22:10:56.384Z,8.64
2023-04-19T22:13:30.326Z,8.64
2023-04-19T22:16:03.724Z,8.64
2023-04-19T22:18:41.203Z,8.66
2023-04-19T22:21:15.658Z,8.65
2023-04-19T22:23:48.441Z,8.64
2023-04-19T22:26:22.525Z,8.65
2023-04-19T22:28:55.360Z,8.67
2023-04-19T22:31:28.143Z,8.65
2023-04-19T22:34:03.630Z,8.64
2023-04-19T22:36:36.507Z,8.64
2023-04-19T22:39:09.383Z,8.65
2023-04-19T22:41:42.343Z,8.65
2023-04-19T22:44:15.808Z,8.65
2023-04-19T22:46:48.805Z,8.67
2023-04-19T22:49:24.426Z,8.67
2023-04-19T22:51:58.911Z,8.68
2023-04-19T22:54:31.750Z,8.68
2023-04-19T22:57:04.755Z,8.67
2023-04-19T22:59:37.597Z,8.67
2023-04-19T23:02:10.900Z,8.66
2023-04-19T23:04:45.277Z,8.66
2023-04-19T23:07:20.425Z,8.68
2023-04-19T23:09:55.114Z,8.67
2023-04-19T23:12:31.436Z,8.69
2023-04-19T23:15:04.766Z,8.72
2023-04-19T23:17:39.423Z,8.73
2023-04-19T23:20:14.006Z,8.73
2023-04-19T23:22:46.852Z,8.74
2023-04-19T23:25:19.959Z,8.74
2023-04-19T23:27:53.131Z,8.74
2023-04-19T23:30:26.309Z,8.74
2023-04-19T23:32:59.639Z,8.73
2023-04-19T23:35:34.176Z,8.75
2023-04-19T23:38:07.276Z,8.74
2023-04-19T23:40:40.146Z,8.74
2023-04-19T23:43:13.264Z,8.73
2023-04-19T23:45:46.384Z,8.70
2023-04-19T23:48:19.238Z,8.70
2023-04-19T23:50:53.765Z,8.68
2023-04-19T23:53:26.610Z,8.68
2023-04-19T23:55:59.394Z,8.66
2023-04-19T23:58:32.224Z,8.65
